createdAt,value
2023-04-02T00:00:49.061Z,75.84
2023-04-02T00:01:49.097Z,76.15
2023-04-02T00:02:50.066Z,75.63
2023-04-02T00:03:49.048Z,75.32
2023-04-02T00:04:49.070Z,75.78
2023-04-02T00:05:49.012Z,76.09
2023-04-02T00:06:48.982Z,76.29
2023-04-02T00:07:49.896Z,76.09
2023-04-02T00:08:49.078Z,76.91
2023-04-02T00:09:48.984Z,76.09
2023-04-02T00:10:48.925Z,76.46
2023-04-02T00:11:48.935Z,76.98
2023-04-02T00:12:48.909Z,76.46
2023-04-02T00:13:49.831Z,75.95
2023-04-02T00:14:48.883Z,75.53
2023-04-02T00:15:48.893Z,75.74
2023-04-02T00:16:48.885Z,75.32
2023-04-02T00:17:48.858Z,75.43
2023-04-02T00:18:48.855Z,75.32
2023-04-02T00:19:49.806Z,75.53
2023-04-02T00:20:48.804Z,74.91
2023-04-02T00:21:48.827Z,74.91
2023-04-02T00:22:48.773Z,74.29
2023-04-02T00:23:48.775Z,74.29
2023-04-02T00:24:48.745Z,74.29
2023-04-02T00:25:49.730Z,74.71
2023-04-02T00:26:48.799Z,74.40
2023-04-02T00:27:48.727Z,74.29
2023-04-02T00:28:48.750Z,74.71
2023-04-02T00:29:48.785Z,74.50
2023-04-02T00:30:48.687Z,74.19
2023-04-02T00:31:49.758Z,74.29
2023-04-02T00:32:48.685Z,73.36
2023-04-02T00:33:48.690Z,73.05
2023-04-02T00:34:48.690Z,73.47
2023-04-02T00:35:48.699Z,73.67
2023-04-02T00:36:49.607Z,72.64
2023-04-02T00:37:48.564Z,72.12
2023-04-02T00:38:48.881Z,72.64
2023-04-02T00:39:48.599Z,73.16
2023-04-02T00:40:48.564Z,73.57
2023-04-02T00:41:49.560Z,73.47
2023-04-02T00:42:48.508Z,73.16
2023-04-02T00:43:48.512Z,73.05
2023-04-02T00:44:48.483Z,72.64
2023-04-02T00:45:48.670Z,72.85
2023-04-02T00:46:49.474Z,72.95
2023-04-02T00:47:48.489Z,73.16
2023-04-02T00:48:48.476Z,72.53
2023-04-02T00:49:48.436Z,72.64
2023-04-02T00:50:48.429Z,73.16
2023-04-02T00:51:48.412Z,72.85
2023-04-02T00:52:49.406Z,71.81
2023-04-02T00:53:48.385Z,71.81
2023-04-02T00:54:48.375Z,72.12
2023-04-02T00:55:48.382Z,72.47
2023-04-02T00:56:48.389Z,72.36
2023-04-02T00:57:48.334Z,72.67
2023-04-02T00:58:49.273Z,72.26
2023-04-02T00:59:48.372Z,72.36
2023-04-02T01:00:48.309Z,72.53
2023-04-02T01:01:48.373Z,72.43
2023-04-02T01:02:48.327Z,71.71
2023-04-02T01:03:49.194Z,73.29
2023-04-02T01:04:48.246Z,73.39
2023-04-02T01:05:48.290Z,73.26
2023-04-02T01:06:48.311Z,72.53
2023-04-02T01:07:48.208Z,72.95
2023-04-02T01:08:48.292Z,73.36
2023-04-02T01:09:49.131Z,72.02
2023-04-02T01:10:48.175Z,71.81
2023-04-02T01:11:48.187Z,72.22
2023-04-02T01:12:48.186Z,72.43
2023-04-02T01:13:48.148Z,72.02
2023-04-02T01:14:49.041Z,71.81
2023-04-02T01:15:48.207Z,71.71
2023-04-02T01:16:48.143Z,71.92
2023-04-02T01:17:48.162Z,72.33
2023-04-02T01:18:48.072Z,72.53
2023-04-02T01:19:48.747Z,71.92
2023-04-02T01:20:48.976Z,71.81
2023-04-02T01:21:48.044Z,72.33
2023-04-02T01:22:48.089Z,71.81
2023-04-02T01:23:48.173Z,71.71
2023-04-02T01:24:47.995Z,72.33
2023-04-02T01:25:48.931Z,71.71
2023-04-02T01:26:48.001Z,70.98
2023-04-02T01:27:47.968Z,71.09
2023-04-02T01:28:47.915Z,71.19
2023-04-02T01:29:47.955Z,71.33
2023-04-02T01:30:47.913Z,72.05
2023-04-02T01:31:49.006Z,72.05
2023-04-02T01:32:47.932Z,72.26
2023-04-02T01:33:47.915Z,71.95
2023-04-02T01:34:47.860Z,72.36
2023-04-02T01:35:47.882Z,71.95
2023-04-02T01:36:48.761Z,71.95
2023-04-02T01:37:47.917Z,71.33
2023-04-02T01:38:47.812Z,71.74
2023-04-02T01:39:47.761Z,71.33
2023-04-02T01:40:47.785Z,71.53
2023-04-02T01:41:47.767Z,71.84
2023-04-02T01:42:48.667Z,72.57
2023-04-02T01:43:47.773Z,72.67
2023-04-02T01:44:47.773Z,72.26
2023-04-02T01:45:47.726Z,71.74
2023-04-02T01:46:47.813Z,72.26
2023-04-02T01:47:48.651Z,72.16
2023-04-02T01:48:47.722Z,71.33
2023-04-02T01:49:47.704Z,71.74
2023-04-02T01:50:47.680Z,72.16
2023-04-02T01:51:47.628Z,72.88
2023-04-02T01:52:47.614Z,72.16
2023-04-02T01:53:48.551Z,72.36
2023-04-02T01:54:47.629Z,71.22
2023-04-02T01:55:47.572Z,71.33
2023-04-02T01:56:47.583Z,71.53
2023-04-02T01:57:47.574Z,70.92
2023-04-02T01:58:47.555Z,71.33
2023-04-02T01:59:48.486Z,71.12
2023-04-02T02:00:47.623Z,70.40
2023-04-02T02:01:47.536Z,70.19
2023-04-02T02:02:47.514Z,70.81
2023-04-02T02:03:47.545Z,70.71
2023-04-02T02:04:47.498Z,70.50
2023-04-02T02:05:48.446Z,71.12
2023-04-02T02:06:47.449Z,71.02
2023-04-02T02:07:47.453Z,70.81
2023-04-02T02:08:47.445Z,69.67
2023-04-02T02:09:47.427Z,70.40
2023-04-02T02:10:47.445Z,69.57
2023-04-02T02:11:48.332Z,70.40
2023-04-02T02:12:47.394Z,70.29
2023-04-02T02:13:47.383Z,70.29
2023-04-02T02:14:47.378Z,70.50
2023-04-02T02:15:47.369Z,70.40
2023-04-02T02:16:47.370Z,70.29
2023-04-02T02:17:48.243Z,70.50
2023-04-02T02:18:47.313Z,69.78
2023-04-02T02:19:47.311Z,69.57
2023-04-02T02:20:47.288Z,69.47
2023-04-02T02:21:47.248Z,68.74
2023-04-02T02:22:47.255Z,69.26
2023-04-02T02:23:48.163Z,69.47
2023-04-02T02:24:47.221Z,69.26
2023-04-02T02:25:47.225Z,68.88
2023-04-02T02:26:47.214Z,68.77
2023-04-02T02:27:47.217Z,69.50
2023-04-02T02:28:47.198Z,70.01
2023-04-02T02:29:48.081Z,69.29
2023-04-02T02:30:47.221Z,70.01
2023-04-02T02:31:47.150Z,68.88
2023-04-02T02:32:47.165Z,69.09
2023-04-02T02:33:47.119Z,69.19
2023-04-02T02:34:48.095Z,69.19
2023-04-02T02:35:47.135Z,69.12
2023-04-02T02:36:47.110Z,69.32
2023-04-02T02:37:47.043Z,69.32
2023-04-02T02:38:47.030Z,69.74
2023-04-02T02:39:47.049Z,69.43
2023-04-02T02:40:47.955Z,69.43
2023-04-02T02:41:47.020Z,69.74
2023-04-02T02:42:47.053Z,69.12
2023-04-02T02:43:47.119Z,69.01
2023-04-02T02:44:46.953Z,69.12
2023-04-02T02:45:47.044Z,69.81
2023-04-02T02:46:47.902Z,70.01
2023-04-02T02:47:46.925Z,69.40
2023-04-02T02:48:46.950Z,69.71
2023-04-02T02:49:46.901Z,70.32
2023-04-02T02:50:46.928Z,70.01
2023-04-02T02:51:46.901Z,69.29
2023-04-02T02:52:47.861Z,68.88
2023-04-02T02:53:47.820Z,69.40
2023-04-02T02:54:46.861Z,69.57
2023-04-02T02:55:46.886Z,69.19
2023-04-02T02:56:46.880Z,69.19
2023-04-02T02:57:46.827Z,68.54
2023-04-02T02:58:47.723Z,68.26
2023-04-02T02:59:46.794Z,69.09
2023-04-02T03:00:46.773Z,69.67
2023-04-02T03:01:46.835Z,69.26
2023-04-02T03:02:46.896Z,68.64
2023-04-02T03:03:46.984Z,68.64
2023-04-02T03:04:47.622Z,69.06
2023-04-02T03:05:46.720Z,68.85
2023-04-02T03:06:46.683Z,67.82
2023-04-02T03:07:46.709Z,68.54
2023-04-02T03:08:46.649Z,67.91
2023-04-02T03:09:46.649Z,68.33
2023-04-02T03:10:47.615Z,69.57
2023-04-02T03:11:46.639Z,69.67
2023-04-02T03:12:46.620Z,69.06
2023-04-02T03:13:46.609Z,69.06
2023-04-02T03:14:46.614Z,69.06
2023-04-02T03:15:47.543Z,68.43
2023-04-02T03:16:46.575Z,68.85
2023-04-02T03:17:46.601Z,68.23
2023-04-02T03:18:46.543Z,68.95
2023-04-02T03:19:46.563Z,69.16
2023-04-02T03:20:47.420Z,68.74
2023-04-02T03:21:46.499Z,69.16
2023-04-02T03:22:46.473Z,69.26
2023-04-02T03:23:46.469Z,69.26
2023-04-02T03:24:46.492Z,68.74
2023-04-02T03:25:46.453Z,68.33
2023-04-02T03:26:47.374Z,68.23
2023-04-02T03:27:46.433Z,68.74
2023-04-02T03:28:46.400Z,69.47
2023-04-02T03:29:46.418Z,69.06
2023-04-02T03:30:46.385Z,70.09
2023-04-02T03:31:47.467Z,69.67
2023-04-02T03:32:46.431Z,69.37
2023-04-02T03:33:46.381Z,68.33
2023-04-02T03:34:46.313Z,68.54
2023-04-02T03:35:46.338Z,67.91
2023-04-02T03:36:46.303Z,68.54
2023-04-02T03:37:47.270Z,68.02
2023-04-02T03:38:46.286Z,68.54
2023-04-02T03:39:46.256Z,68.33
2023-04-02T03:40:46.277Z,68.54
2023-04-02T03:41:46.269Z,68.57
2023-04-02T03:42:46.265Z,67.91
2023-04-02T03:43:47.152Z,68.46
2023-04-02T03:44:46.192Z,68.64
2023-04-02T03:45:46.224Z,69.37
2023-04-02T03:46:46.198Z,69.37
2023-04-02T03:47:46.212Z,68.74
2023-04-02T03:48:47.093Z,69.57
2023-04-02T03:49:46.124Z,68.85
2023-04-02T03:50:46.152Z,68.95
2023-04-02T03:51:46.114Z,68.54
2023-04-02T03:52:46.100Z,68.64
2023-04-02T03:53:46.100Z,68.33
2023-04-02T03:54:53.943Z,68.95
2023-04-02T03:55:47.602Z,68.95
2023-04-02T03:56:46.035Z,69.78
2023-04-02T03:57:46.062Z,69.67
2023-04-02T03:58:46.037Z,69.47
2023-04-02T03:59:47.318Z,69.57
2023-04-02T04:00:46.969Z,68.64
2023-04-02T04:01:46.005Z,69.57
2023-04-02T04:02:46.014Z,69.78
2023-04-02T04:03:46.008Z,69.67
2023-04-02T04:04:46.042Z,69.16
2023-04-02T04:05:46.845Z,68.85
2023-04-02T04:06:45.904Z,69.81
2023-04-02T04:07:45.934Z,69.09
2023-04-02T04:08:45.891Z,68.26
2023-04-02T04:09:45.871Z,68.77
2023-04-02T04:10:45.893Z,69.19
2023-04-02T04:11:46.841Z,69.50
2023-04-02T04:12:45.870Z,69.19
2023-04-02T04:13:45.836Z,69.40
2023-04-02T04:14:45.842Z,69.19
2023-04-02T04:15:45.800Z,69.40
2023-04-02T04:16:46.765Z,68.88
2023-04-02T04:17:45.839Z,69.29
2023-04-02T04:18:45.777Z,69.19
2023-04-02T04:19:45.836Z,68.77
2023-04-02T04:20:45.730Z,68.95
2023-04-02T04:21:45.735Z,69.26
2023-04-02T04:22:46.662Z,68.64
2023-04-02T04:23:45.746Z,68.43
2023-04-02T04:24:45.725Z,69.57
2023-04-02T04:25:45.673Z,69.57
2023-04-02T04:26:45.715Z,69.57
2023-04-02T04:27:46.570Z,68.95
2023-04-02T04:28:45.657Z,68.74
2023-04-02T04:29:45.674Z,68.74
2023-04-02T04:30:45.721Z,68.02
2023-04-02T04:31:45.619Z,68.33
2023-04-02T04:32:45.615Z,68.64
2023-04-02T04:33:46.580Z,68.74
2023-04-02T04:34:45.583Z,69.26
2023-04-02T04:35:45.664Z,69.47
2023-04-02T04:36:45.596Z,69.37
2023-04-02T04:37:45.943Z,69.06
2023-04-02T04:38:46.612Z,69.06
2023-04-02T04:39:45.606Z,68.95
2023-04-02T04:40:45.491Z,68.74
2023-04-02T04:41:45.481Z,69.16
2023-04-02T04:42:45.470Z,69.57
2023-04-02T04:43:45.465Z,69.98
2023-04-02T04:44:46.367Z,68.85
2023-04-02T04:45:45.539Z,69.57
2023-04-02T04:46:45.419Z,69.26
2023-04-02T04:47:45.477Z,69.26
2023-04-02T04:48:45.366Z,68.74
2023-04-02T04:49:46.328Z,68.57
2023-04-02T04:50:45.415Z,69.09
2023-04-02T04:51:45.366Z,68.77
2023-04-02T04:52:45.342Z,68.67
2023-04-02T04:53:45.369Z,68.88
2023-04-02T04:54:45.300Z,69.29
2023-04-02T04:55:46.306Z,69.29
2023-04-02T04:56:45.302Z,69.40
2023-04-02T04:57:45.285Z,69.29
2023-04-02T04:58:45.293Z,69.60
2023-04-02T04:59:45.247Z,69.50
2023-04-02T05:00:45.226Z,69.92
2023-04-02T05:01:46.172Z,70.12
2023-04-02T05:02:45.249Z,69.26
2023-04-02T05:03:45.208Z,69.26
2023-04-02T05:04:45.246Z,69.16
2023-04-02T05:05:45.160Z,69.37
2023-04-02T05:06:46.087Z,69.88
2023-04-02T05:07:45.189Z,70.29
2023-04-02T05:08:45.141Z,69.47
2023-04-02T05:09:45.154Z,69.23
2023-04-02T05:10:45.132Z,68.92
2023-04-02T05:11:46.075Z,69.95
2023-04-02T05:12:45.121Z,69.23
2023-04-02T05:13:45.062Z,68.51
2023-04-02T05:14:45.082Z,68.51
2023-04-02T05:15:45.052Z,69.12
2023-04-02T05:16:45.984Z,68.61
2023-04-02T05:17:45.058Z,68.40
2023-04-02T05:18:45.010Z,68.51
2023-04-02T05:19:45.047Z,68.40
2023-04-02T05:20:45.031Z,68.40
2023-04-02T05:21:45.921Z,68.19
2023-04-02T05:22:44.986Z,68.30
2023-04-02T05:23:45.023Z,67.78
2023-04-02T05:24:44.937Z,68.64
2023-04-02T05:25:44.927Z,68.85
2023-04-02T05:26:45.872Z,69.88
2023-04-02T05:27:44.875Z,68.85
2023-04-02T05:28:44.903Z,68.64
2023-04-02T05:29:44.892Z,68.33
2023-04-02T05:30:44.877Z,68.95
2023-04-02T05:31:44.946Z,69.16
2023-04-02T05:32:45.807Z,69.06
2023-04-02T05:33:44.879Z,68.74
2023-04-02T05:34:44.929Z,68.95
2023-04-02T05:35:44.821Z,68.33
2023-04-02T05:36:45.738Z,68.12
2023-04-02T05:37:45.752Z,68.95
2023-04-02T05:38:45.777Z,69.26
2023-04-02T05:39:44.740Z,68.95
2023-04-02T05:40:44.726Z,69.78
2023-04-02T05:41:44.764Z,69.47
2023-04-02T05:42:44.693Z,69.37
2023-04-02T05:43:45.633Z,68.23
2023-04-02T05:44:44.664Z,68.95
2023-04-02T05:45:44.708Z,69.54
2023-04-02T05:46:44.757Z,68.51
2023-04-02T05:47:44.836Z,69.12
2023-04-02T05:48:45.654Z,68.51
2023-04-02T05:49:44.629Z,68.51
2023-04-02T05:50:44.612Z,68.82
2023-04-02T05:51:44.681Z,68.37
2023-04-02T05:52:44.581Z,68.06
2023-04-02T05:53:45.508Z,68.30
2023-04-02T05:54:44.588Z,68.48
2023-04-02T05:55:44.545Z,67.96
2023-04-02T05:56:44.549Z,67.96
2023-04-02T05:57:52.833Z,68.48
2023-04-02T05:58:46.097Z,67.96
2023-04-02T05:59:45.456Z,68.06
2023-04-02T06:00:44.493Z,68.16
2023-04-02T06:01:44.521Z,68.06
2023-04-02T06:02:44.482Z,67.85
2023-04-02T06:03:44.512Z,67.44
2023-04-02T06:04:44.453Z,67.75
2023-04-02T06:05:45.342Z,67.75
2023-04-02T06:06:44.399Z,67.34
2023-04-02T06:07:44.374Z,67.34
2023-04-02T06:08:44.472Z,67.34
2023-04-02T06:09:44.365Z,66.72
2023-04-02T06:10:45.220Z,67.13
2023-04-02T06:11:45.324Z,66.00
2023-04-02T06:12:44.367Z,66.30
2023-04-02T06:13:44.337Z,67.34
2023-04-02T06:14:45.232Z,66.51
2023-04-02T06:15:46.523Z,66.82
2023-04-02T06:16:44.361Z,66.93
2023-04-02T06:17:45.319Z,66.82
2023-04-02T06:18:44.262Z,66.41
2023-04-02T06:19:44.216Z,66.30
2023-04-02T06:20:44.269Z,67.44
2023-04-02T06:21:44.221Z,67.44
2023-04-02T06:22:44.196Z,66.72
2023-04-02T06:23:45.118Z,66.82
2023-04-02T06:24:44.234Z,67.34
2023-04-02T06:25:44.142Z,67.24
2023-04-02T06:26:44.170Z,67.75
2023-04-02T06:27:44.163Z,67.54
2023-04-02T06:28:44.166Z,67.13
2023-04-02T06:29:45.042Z,66.89
2023-04-02T06:30:44.147Z,65.97
2023-04-02T06:31:44.131Z,66.07
2023-04-02T06:32:44.127Z,65.97
2023-04-02T06:33:44.045Z,66.07
2023-04-02T06:34:44.086Z,64.73
2023-04-02T06:35:45.024Z,64.62
2023-04-02T06:36:44.019Z,64.93
2023-04-02T06:37:43.991Z,64.73
2023-04-02T06:38:44.005Z,65.42
2023-04-02T06:39:44.017Z,65.00
2023-04-02T06:40:44.879Z,64.49
2023-04-02T06:41:43.941Z,63.56
2023-04-02T06:42:43.971Z,64.04
2023-04-02T06:43:43.915Z,64.15
2023-04-02T06:44:43.987Z,63.32
2023-04-02T06:45:43.957Z,64.25
2023-04-02T06:46:44.890Z,63.64
2023-04-02T06:47:43.958Z,63.22
2023-04-02T06:48:43.898Z,63.40
2023-04-02T06:49:43.866Z,62.68
2023-04-02T06:50:43.858Z,63.37
2023-04-02T06:51:43.833Z,62.34
2023-04-02T06:52:44.780Z,62.24
2023-04-02T06:53:43.835Z,61.72
2023-04-02T06:54:43.831Z,61.38
2023-04-02T06:55:43.801Z,60.87
2023-04-02T06:56:43.779Z,60.25
2023-04-02T06:57:44.726Z,60.15
2023-04-02T06:58:43.778Z,61.18
2023-04-02T06:59:43.725Z,61.07
2023-04-02T07:00:43.730Z,60.66
2023-04-02T07:01:43.789Z,60.97
2023-04-02T07:02:44.678Z,60.66
2023-04-02T07:03:43.680Z,60.38
2023-04-02T07:04:43.720Z,60.59
2023-04-02T07:05:43.675Z,60.07
2023-04-02T07:06:43.675Z,59.56
2023-04-02T07:07:44.655Z,59.58
2023-04-02T07:08:43.609Z,60.00
2023-04-02T07:09:43.900Z,60.82
2023-04-02T07:10:43.622Z,61.24
2023-04-02T07:11:43.632Z,61.41
2023-04-02T07:12:43.544Z,60.69
2023-04-02T07:13:44.566Z,60.69
2023-04-02T07:14:43.539Z,59.86
2023-04-02T07:15:43.580Z,60.79
2023-04-02T07:16:43.541Z,60.79
2023-04-02T07:17:43.570Z,60.59
2023-04-02T07:18:44.474Z,60.59
2023-04-02T07:19:43.553Z,60.38
2023-04-02T07:20:43.480Z,59.97
2023-04-02T07:21:43.475Z,58.94
2023-04-02T07:22:43.465Z,59.25
2023-04-02T07:23:44.453Z,59.35
2023-04-02T07:24:43.540Z,59.56
2023-04-02T07:25:43.434Z,59.56
2023-04-02T07:26:43.505Z,59.45
2023-04-02T07:27:43.443Z,59.12
2023-04-02T07:28:44.398Z,58.91
2023-04-02T07:29:43.363Z,58.40
2023-04-02T07:30:43.354Z,58.70
2023-04-02T07:31:43.413Z,58.70
2023-04-02T07:32:43.361Z,57.98
2023-04-02T07:33:44.261Z,58.91
2023-04-02T07:34:43.299Z,59.22
2023-04-02T07:35:43.337Z,58.78
2023-04-02T07:36:43.262Z,58.16
2023-04-02T07:37:43.252Z,57.54
2023-04-02T07:38:43.268Z,57.96
2023-04-02T07:39:44.268Z,57.75
2023-04-02T07:40:43.229Z,56.82
2023-04-02T07:41:43.188Z,57.34
2023-04-02T07:42:43.213Z,56.93
2023-04-02T07:43:43.203Z,56.31
2023-04-02T07:44:44.093Z,57.65
2023-04-02T07:45:43.160Z,56.82
2023-04-02T07:46:43.199Z,57.31
2023-04-02T07:47:43.172Z,56.49
2023-04-02T07:48:43.141Z,57.10
2023-04-02T07:49:43.081Z,56.90
2023-04-02T07:50:44.077Z,55.98
2023-04-02T07:51:43.082Z,55.98
2023-04-02T07:52:43.098Z,55.57
2023-04-02T07:53:43.063Z,56.29
2023-04-02T07:54:43.054Z,56.80
2023-04-02T07:55:43.148Z,57.10
2023-04-02T07:56:43.940Z,56.67
2023-04-02T07:57:45.645Z,56.15
2023-04-02T07:58:43.000Z,55.74
2023-04-02T07:59:43.917Z,56.15
2023-04-02T08:00:42.966Z,55.33
2023-04-02T08:01:43.204Z,55.95
2023-04-02T08:02:43.956Z,55.95
2023-04-02T08:03:43.105Z,55.33
2023-04-02T08:04:42.897Z,55.21
2023-04-02T08:05:42.942Z,55.51
2023-04-02T08:06:42.867Z,55.00
2023-04-02T08:07:43.808Z,54.49
2023-04-02T08:08:42.873Z,54.07
2023-04-02T08:09:42.834Z,53.66
2023-04-02T08:10:42.870Z,54.49
2023-04-02T08:11:42.827Z,54.49
2023-04-02T08:12:42.820Z,54.59
2023-04-02T08:13:43.798Z,54.69
2023-04-02T08:14:42.792Z,54.07
2023-04-02T08:15:42.773Z,54.79
2023-04-02T08:16:42.806Z,54.38
2023-04-02T08:17:42.767Z,54.79
2023-04-02T08:18:42.739Z,54.28
2023-04-02T08:19:54.060Z,54.90
2023-04-02T08:20:44.345Z,54.49
2023-04-02T08:21:42.681Z,54.28
2023-04-02T08:22:42.684Z,54.79
2023-04-02T08:23:42.683Z,53.97
2023-04-02T08:24:43.671Z,54.28
2023-04-02T08:25:42.651Z,54.69
2023-04-02T08:26:43.956Z,55.00
2023-04-02T08:27:42.638Z,54.59
2023-04-02T08:28:42.592Z,54.90
2023-04-02T08:29:42.590Z,54.17
2023-04-02T08:30:43.539Z,54.79
2023-04-02T08:31:42.588Z,54.77
2023-04-02T08:32:42.681Z,54.05
2023-04-02T08:33:42.537Z,54.56
2023-04-02T08:34:42.521Z,54.36
2023-04-02T08:35:43.469Z,54.49
2023-04-02T08:36:42.532Z,54.59
2023-04-02T08:37:42.474Z,55.21
2023-04-02T08:38:42.489Z,55.62
2023-04-02T08:39:42.493Z,55.21
2023-04-02T08:40:42.502Z,55.62
2023-04-02T08:41:43.392Z,55.93
2023-04-02T08:42:42.438Z,55.62
2023-04-02T08:43:42.397Z,55.93
2023-04-02T08:44:42.410Z,55.90
2023-04-02T08:45:42.558Z,55.18
2023-04-02T08:46:42.342Z,55.28
2023-04-02T08:47:43.302Z,55.08
2023-04-02T08:48:42.773Z,55.49
2023-04-02T08:49:42.313Z,55.28
2023-04-02T08:50:42.347Z,55.38
2023-04-02T08:51:42.272Z,54.97
2023-04-02T08:52:43.192Z,55.21
2023-04-02T08:53:42.287Z,56.02
2023-04-02T08:54:42.265Z,55.00
2023-04-02T08:55:42.216Z,55.30
2023-04-02T08:56:42.222Z,55.72
2023-04-02T08:57:42.245Z,55.41
2023-04-02T08:58:43.145Z,55.10
2023-04-02T08:59:42.198Z,55.10
2023-04-02T09:00:42.177Z,55.30
2023-04-02T09:01:42.269Z,55.00
2023-04-02T09:02:42.148Z,55.82
2023-04-02T09:03:42.110Z,56.02
2023-04-02T09:04:43.113Z,55.41
2023-04-02T09:05:42.088Z,55.82
2023-04-02T09:06:42.080Z,55.41
2023-04-02T09:07:42.119Z,55.62
2023-04-02T09:08:42.068Z,55.21
2023-04-02T09:09:42.057Z,55.93
2023-04-02T09:10:43.004Z,55.62
2023-04-02T09:11:42.019Z,55.59
2023-04-02T09:12:42.380Z,56.41
2023-04-02T09:13:41.997Z,55.36
2023-04-02T09:14:41.991Z,53.59
2023-04-02T09:15:42.000Z,53.59
2023-04-02T09:16:42.888Z,53.77
2023-04-02T09:17:53.194Z,51.92
2023-04-02T09:18:43.513Z,50.97
2023-04-02T09:19:41.930Z,51.07
2023-04-02T09:20:41.909Z,51.59
2023-04-02T09:21:42.850Z,50.95
2023-04-02T09:22:41.887Z,49.62
2023-04-02T09:23:41.883Z,49.08
2023-04-02T09:24:41.870Z,49.29
2023-04-02T09:25:42.211Z,49.18
2023-04-02T09:26:42.836Z,48.96
2023-04-02T09:27:42.610Z,48.96
2023-04-02T09:28:41.815Z,47.91
2023-04-02T09:29:41.820Z,46.78
2023-04-02T09:30:41.811Z,47.50
2023-04-02T09:31:42.758Z,47.91
2023-04-02T09:32:41.810Z,47.78
2023-04-02T09:33:41.769Z,46.74
2023-04-02T09:34:41.760Z,46.44
2023-04-02T09:35:41.848Z,46.23
2023-04-02T09:36:42.673Z,46.23
2023-04-02T09:37:41.685Z,45.72
2023-04-02T09:38:41.686Z,46.44
2023-04-02T09:39:43.150Z,46.84
2023-04-02T09:40:41.654Z,46.23
2023-04-02T09:41:43.804Z,46.62
2023-04-02T09:42:41.650Z,46.41
2023-04-02T09:43:42.523Z,46.19
2023-04-02T09:44:41.648Z,45.67
2023-04-02T09:45:41.604Z,44.45
2023-04-02T09:46:41.619Z,44.12
2023-04-02T09:47:42.649Z,44.53
2023-04-02T09:48:41.575Z,44.02
2023-04-02T09:49:41.593Z,43.91
2023-04-02T09:50:42.422Z,43.51
2023-04-02T09:51:41.524Z,43.69
2023-04-02T09:52:41.527Z,44.20
2023-04-02T09:53:42.750Z,43.77
2023-04-02T09:54:41.538Z,43.37
2023-04-02T09:55:41.555Z,42.22
2023-04-02T09:56:41.462Z,42.43
2023-04-02T09:57:41.471Z,43.55
2023-04-02T09:58:42.364Z,42.94
2023-04-02T09:59:41.446Z,42.92
2023-04-02T10:00:42.192Z,43.23
2023-04-02T10:01:41.432Z,42.51
2023-04-02T10:02:41.427Z,43.32
2023-04-02T10:03:42.328Z,42.80
2023-04-02T10:04:41.451Z,42.59
2023-04-02T10:05:41.711Z,43.29
2023-04-02T10:06:41.308Z,42.02
2023-04-02T10:07:41.376Z,41.19
2023-04-02T10:08:41.311Z,40.25
2023-04-02T10:09:42.255Z,39.04
2023-04-02T10:10:41.281Z,39.22
2023-04-02T10:12:41.274Z,39.04
2023-04-02T10:13:41.245Z,39.85
2023-04-02T10:14:41.210Z,39.85
2023-04-02T10:15:42.159Z,40.37
2023-04-02T10:16:41.218Z,40.88
2023-04-02T10:17:41.242Z,40.70
2023-04-02T10:18:41.198Z,41.82
2023-04-02T10:19:41.179Z,42.76
2023-04-02T10:20:51.030Z,42.55
2023-04-02T10:21:42.696Z,42.98
2023-04-02T10:22:41.148Z,42.16
2023-04-02T10:23:41.157Z,42.39
2023-04-02T10:24:41.091Z,42.49
2023-04-02T10:25:42.068Z,43.94
2023-04-02T10:26:41.087Z,43.02
2023-04-02T10:27:41.066Z,43.02
2023-04-02T10:28:41.052Z,43.55
2023-04-02T10:29:41.089Z,43.75
2023-04-02T10:30:41.134Z,44.06
2023-04-02T10:31:41.982Z,43.14
2023-04-02T10:32:41.067Z,42.94
2023-04-02T10:33:40.991Z,43.44
2023-04-02T10:34:42.866Z,42.02
2023-04-02T10:35:41.022Z,42.94
2023-04-02T10:36:41.894Z,42.53
2023-04-02T10:37:40.960Z,42.33
2023-04-02T10:38:40.927Z,42.94
2023-04-02T10:39:41.013Z,42.12
2023-04-02T10:40:40.911Z,41.59
2023-04-02T10:41:40.917Z,40.64
2023-04-02T10:42:41.816Z,40.84
2023-04-02T10:43:40.855Z,40.39
2023-04-02T10:44:40.866Z,39.66
2023-04-02T10:45:40.845Z,39.54
2023-04-02T10:46:40.915Z,40.22
2023-04-02T10:47:40.884Z,37.98
2023-04-02T10:48:41.771Z,37.87
2023-04-02T10:49:40.875Z,37.54
2023-04-02T10:50:40.790Z,37.51
2023-04-02T10:51:40.821Z,36.29
2023-04-02T10:52:40.839Z,36.15
2023-04-02T10:53:41.687Z,36.54
2023-04-02T10:54:40.748Z,35.43
2023-04-02T10:55:40.719Z,35.63
2023-04-02T10:56:49.940Z,34.69
2023-04-02T10:57:43.272Z,34.77
2023-04-02T10:58:42.959Z,34.23
2023-04-02T10:59:40.761Z,34.13
2023-04-02T11:00:40.645Z,33.12
2023-04-02T11:01:40.724Z,32.59
2023-04-02T11:02:40.845Z,32.78
2023-04-02T11:03:41.762Z,32.30
2023-04-02T11:05:39.566Z,33.66
2023-04-02T11:06:39.512Z,33.67
2023-04-02T11:07:39.548Z,34.72
2023-04-02T11:08:39.495Z,34.94
2023-04-02T11:09:41.424Z,35.95
2023-04-02T11:10:39.514Z,35.99
2023-04-02T11:11:39.605Z,36.51
2023-04-02T11:12:41.698Z,36.83
2023-04-02T11:13:39.514Z,37.35
2023-04-02T11:14:40.348Z,37.68
2023-04-02T11:15:39.536Z,39.73
2023-04-02T11:16:43.956Z,39.14
2023-04-02T11:17:40.959Z,39.15
2023-04-02T11:18:39.391Z,39.97
2023-04-02T11:19:39.404Z,40.19
2023-04-02T11:20:39.357Z,40.82
2023-04-02T11:21:51.134Z,39.80
2023-04-02T11:22:40.853Z,40.23
2023-04-02T11:23:39.324Z,39.92
2023-04-02T11:24:39.289Z,40.05
2023-04-02T11:25:40.282Z,40.14
2023-04-02T11:26:39.324Z,41.06
2023-04-02T11:27:39.232Z,40.96
2023-04-02T11:28:39.283Z,40.45
2023-04-02T11:29:39.253Z,41.16
2023-04-02T11:30:39.285Z,40.88
2023-04-02T11:31:40.204Z,40.96
2023-04-02T11:32:39.515Z,40.35
2023-04-02T11:33:41.954Z,40.55
2023-04-02T11:34:39.172Z,41.37
2023-04-02T11:35:39.549Z,42.06
2023-04-02T11:36:40.100Z,40.46
2023-04-02T11:37:39.203Z,39.10
2023-04-02T11:38:39.115Z,38.27
2023-04-02T11:39:39.121Z,37.00
2023-04-02T11:40:39.078Z,37.51
2023-04-02T11:41:40.091Z,36.59
2023-04-02T11:42:39.095Z,35.66
2023-04-02T11:43:39.267Z,35.14
2023-04-02T11:44:39.060Z,34.95
2023-04-02T11:45:50.125Z,35.57
2023-04-02T11:46:40.546Z,34.87
2023-04-02T11:47:40.050Z,35.28
2023-04-02T11:48:38.992Z,35.60
2023-04-02T11:49:38.988Z,36.22
2023-04-02T11:50:39.054Z,35.31
2023-04-02T11:51:38.964Z,35.72
2023-04-02T11:52:39.911Z,36.43
2023-04-02T11:53:38.972Z,35.85
2023-04-02T11:54:38.923Z,34.94
2023-04-02T11:55:39.172Z,34.62
2023-04-02T11:56:38.860Z,34.17
2023-04-02T11:57:38.947Z,33.56
2023-04-02T11:58:39.775Z,33.86
2023-04-02T11:59:38.853Z,34.47
2023-04-02T12:00:38.801Z,34.25
2023-04-02T12:01:38.903Z,33.64
2023-04-02T12:02:38.939Z,33.05
2023-04-02T12:03:38.781Z,33.36
2023-04-02T12:04:39.694Z,33.46
2023-04-02T12:05:38.825Z,33.58
2023-04-02T12:06:38.769Z,34.18
2023-04-02T12:07:38.770Z,33.69
2023-04-02T12:08:47.518Z,34.42
2023-04-02T12:09:41.122Z,34.43
2023-04-02T12:10:38.709Z,34.45
2023-04-02T12:11:38.679Z,35.26
2023-04-02T12:12:38.652Z,35.99
2023-04-02T12:13:38.643Z,35.90
2023-04-02T12:14:39.619Z,35.61
2023-04-02T12:15:38.662Z,36.34
2023-04-02T12:16:38.649Z,36.76
2023-04-02T12:17:38.638Z,37.37
2023-04-02T12:18:38.648Z,38.00
2023-04-02T12:19:39.508Z,38.73
2023-04-02T12:20:38.550Z,38.12
2023-04-02T12:21:38.546Z,39.66
2023-04-02T12:22:40.214Z,39.06
2023-04-02T12:23:38.545Z,39.38
2023-04-02T12:24:39.439Z,38.75
2023-04-02T12:25:44.341Z,38.65
2023-04-02T12:26:38.565Z,38.85
2023-04-02T12:27:38.496Z,38.65
2023-04-02T12:28:38.457Z,38.53
2023-04-02T12:29:38.437Z,38.14
2023-04-02T12:30:39.391Z,38.75
2023-04-02T12:31:38.439Z,39.26
2023-04-02T12:32:38.484Z,38.45
2023-04-02T12:33:38.413Z,38.95
2023-04-02T12:34:38.402Z,38.75
2023-04-02T12:35:39.305Z,38.45
2023-04-02T12:36:38.358Z,38.54
2023-04-02T12:37:38.355Z,38.95
2023-04-02T12:38:38.339Z,38.05
2023-04-02T12:39:38.364Z,34.52
2023-04-02T12:40:38.529Z,33.83
2023-04-02T12:41:39.217Z,31.32
2023-04-02T12:42:38.308Z,30.38
2023-04-02T12:43:38.249Z,29.27
2023-04-02T12:44:38.264Z,29.81
2023-04-02T12:45:38.240Z,30.14
2023-04-02T12:46:39.244Z,30.24
2023-04-02T12:47:38.249Z,30.55
2023-04-02T12:48:38.234Z,31.38
2023-04-02T12:49:38.189Z,31.99
2023-04-02T12:50:38.481Z,31.10
2023-04-02T12:51:38.176Z,31.82
2023-04-02T12:52:39.061Z,33.26
2023-04-02T12:53:38.140Z,33.07
2023-04-02T12:54:38.133Z,33.61